Time;durP1;ratioP1;P1;durP2;ratioP2;P2;SDS_P1;SDS_P2;PMS_P1;PMS_P2;Temp;Humidity;BMP_temperature;BMP_pressure;BME280_temperature;BME280_humidity;BME280_pressure;Samples;Min_cycle;Max_cycle;Signal;HPM_P1;HPM_P2
2022/11/24 00:01:07;;;;;;;27.33;4.63;;;;;;;21.28;65.88;98527.34;7315010;19;129899;-37
2022/11/24 00:03:33;;;;;;;14.48;3.85;;;;;;;21.28;65.32;98524.72;7317502;19;128880;-36
2022/11/24 00:06:07;;;;;;;34.20;4.90;;;;;;;21.28;66.90;98524.72;7316017;19;130195;-36
2022/11/24 00:08:37;;;;;;;23.38;4.15;;;;;;;21.28;65.44;98516.88;7318232;19;130098;-37
2022/11/24 00:11:04;;;;;;;24.15;4.38;;;;;;;21.25;65.24;98522.44;7315588;19;129730;-38
2022/11/24 00:13:30;;;;;;;26.92;4.68;;;;;;;21.20;65.07;98519.50;7316972;19;128981;-37
2022/11/24 00:16:04;;;;;;;49.17;6.25;;;;;;;21.05;64.59;98504.63;7315231;19;130087;-37
2022/11/24 00:18:30;;;;;;;30.30;5.28;;;;;;;21.17;64.60;98522.41;7316463;19;130372;-37
2022/11/24 00:20:55;;;;;;;32.33;4.90;;;;;;;21.21;64.44;98520.31;7319230;19;129293;-37
2022/11/24 00:23:20;;;;;;;27.63;4.75;;;;;;;21.33;64.19;98516.38;7318483;19;129768;-38
2022/11/24 00:25:46;;;;;;;43.20;5.82;;;;;;;21.47;63.55;98515.75;7313919;19;129540;-37
2022/11/24 00:28:11;;;;;;;15.35;4.05;;;;;;;21.56;62.92;98528.66;7317443;19;129315;-37
2022/11/24 00:30:36;;;;;;;25.80;4.63;;;;;;;21.71;62.17;98521.75;7317114;19;128960;-37
2022/11/24 00:33:02;;;;;;;33.33;5.20;;;;;;;21.80;62.17;98526.00;7314903;19;129248;-38
2022/11/24 00:35:27;;;;;;;20.45;4.32;;;;;;;21.85;62.22;98534.19;7314274;19;131472;-37
2022/11/24 00:37:54;;;;;;;35.22;5.13;;;;;;;21.84;61.55;98522.09;7316482;19;131164;-38
2022/11/24 00:40:20;;;;;;;34.42;5.40;;;;;;;21.83;61.79;98541.38;7316922;19;128929;-38
2022/11/24 00:42:45;;;;;;;42.58;5.82;;;;;;;21.76;62.16;98540.41;7313751;19;129713;-38
2022/11/24 00:45:10;;;;;;;35.63;5.57;;;;;;;21.72;61.87;98538.25;7316475;19;129396;-38
2022/11/24 00:47:35;;;;;;;65.50;7.53;;;;;;;21.56;62.42;98518.19;7316308;19;129021;-38
2022/11/24 00:50:01;;;;;;;62.83;7.60;;;;;;;21.61;62.79;98542.03;7313007;19;128715;-39
2022/11/24 00:52:26;;;;;;;53.42;6.93;;;;;;;21.58;62.40;98542.38;7312450;19;129465;-36
2022/11/24 00:54:51;;;;;;;24.03;4.27;;;;;;;21.52;62.59;98547.41;7314395;19;130336;-36
2022/11/24 00:57:17;;;;;;;68.43;8.40;;;;;;;21.35;63.07;98520.50;7314899;19;129612;-37
2022/11/24 00:59:42;;;;;;;31.52;5.18;;;;;;;21.43;62.93;98549.25;7318400;19;129232;-38
2022/11/24 01:02:07;;;;;;;23.13;4.55;;;;;;;21.37;63.03;98549.09;7311458;19;130310;-37
2022/11/24 01:04:33;;;;;;;29.15;4.90;;;;;;;21.35;63.62;98551.88;7316372;19;129955;-37
2022/11/24 01:06:58;;;;;;;21.60;4.70;;;;;;;21.31;63.67;98547.94;7314462;19;131117;-36
2022/11/24 01:09:23;;;;;;;25.38;4.32;;;;;;;21.24;63.80;98552.16;7315929;19;129382;-37
2022/11/24 01:12:01;;;;;;;40.72;5.88;;;;;;;21.22;63.75;98551.50;7312939;19;129349;-37
2022/11/24 01:14:27;;;;;;;34.55;5.15;;;;;;;21.17;63.74;98543.34;7315992;19;129472;-38
2022/11/24 01:16:53;;;;;;;43.55;6.00;;;;;;;21.15;64.50;98555.78;7315632;19;130630;-37
2022/11/24 01:19:18;;;;;;;29.43;4.73;;;;;;;21.11;64.28;98559.66;7316798;19;129123;-37
2022/11/24 01:21:44;;;;;;;50.30;6.60;;;;;;;21.08;64.49;98565.22;7313354;19;129210;-37
2022/11/24 01:24:10;;;;;;;28.02;4.70;;;;;;;21.06;64.57;98561.94;7315107;19;129725;-36
2022/11/24 01:26:35;;;;;;;24.20;4.63;;;;;;;21.05;64.25;98565.56;7316547;19;129075;-38
2022/11/24 01:29:00;;;;;;;46.30;5.77;;;;;;;21.01;65.01;98569.44;7315210;19;129389;-37
2022/11/24 01:31:26;;;;;;;39.33;5.40;;;;;;;21.01;64.62;98579.06;7311300;19;130613;-37
2022/11/24 01:33:52;;;;;;;46.60;6.33;;;;;;;20.89;64.92;98568.09;7315168;19;129589;-37
2022/11/24 01:36:17;;;;;;;37.97;5.43;;;;;;;20.98;65.02;98590.69;7315080;19;131628;-39
2022/11/24 01:38:43;;;;;;;34.40;5.30;;;;;;;20.96;64.94;98582.16;7310871;19;129096;-37
2022/11/24 01:41:13;;;;;;;29.08;4.72;;;;;;;20.95;65.01;98588.38;7314441;19;132236;-36
2022/11/24 01:43:39;;;;;;;37.53;5.63;;;;;;;20.98;64.67;98595.91;7312018;19;131724;-35
2022/11/24 01:46:26;;;;;;;32.10;5.45;;;;;;;21.01;64.46;98595.59;7314868;19;130326;-37
2022/11/24 01:49:07;;;;;;;34.30;5.05;;;;;;;21.12;64.49;98603.09;7315943;19;129931;-35
2022/11/24 01:51:35;;;;;;;49.35;6.15;;;;;;;21.24;64.42;98596.59;7313287;19;129085;-38
2022/11/24 01:54:24;;;;;;;33.72;5.32;;;;;;;21.41;63.76;98593.03;7313176;19;130701;-36
2022/11/24 01:56:54;;;;;;;30.67;5.03;;;;;;;21.60;62.71;98584.84;7313858;19;130522;-38
2022/11/24 01:59:20;;;;;;;30.88;4.90;;;;;;;21.74;62.49;98599.91;7314639;19;129981;-36
2022/11/24 02:01:49;;;;;;;22.52;4.05;;;;;;;21.86;62.28;98592.56;7314446;19;129146;-36
2022/11/24 02:04:18;;;;;;;66.47;7.38;;;;;;;21.90;61.41;98591.22;7310969;19;130642;-37
2022/11/24 02:06:45;;;;;;;26.13;4.78;;;;;;;21.91;61.67;98585.84;7312893;19;130200;-37
2022/11/24 02:09:18;;;;;;;37.08;5.60;;;;;;;21.85;61.94;98599.59;7314208;19;129410;-37
2022/11/24 02:11:45;;;;;;;26.20;4.63;;;;;;;21.79;61.88;98602.88;7311056;19;129058;-37
2022/11/24 02:14:14;;;;;;;32.10;5.05;;;;;;;21.75;62.08;98608.56;7312048;19;129148;-36
2022/11/24 02:16:44;;;;;;;61.28;7.80;;;;;;;21.66;62.01;98599.91;7307776;19;129639;-38
2022/11/24 02:19:26;;;;;;;194.75;16.52;;;;;;;21.62;62.56;98605.59;7296909;19;131205;-38
2022/11/24 02:21:51;;;;;;;24.73;4.47;;;;;;;21.55;62.91;98600.22;7292460;19;130664;-37
2022/11/24 02:24:30;;;;;;;26.55;4.22;;;;;;;21.51;62.88;98604.16;7314137;19;129407;-36
2022/11/24 02:26:55;;;;;;;29.05;4.53;;;;;;;21.43;63.40;98606.78;7311389;19;130434;-37
2022/11/24 02:29:21;;;;;;;33.90;5.00;;;;;;;21.40;63.45;98601.84;7314238;19;128680;-37
2022/11/24 02:31:51;;;;;;;31.67;5.20;;;;;;;21.34;63.39;98607.72;7310863;19;128810;-36
2022/11/24 02:34:17;;;;;;;17.95;3.80;;;;;;;21.29;63.42;98610.00;7311104;19;131464;-37
2022/11/24 02:36:42;;;;;;;25.00;4.22;;;;;;;21.25;63.80;98608.72;7307765;19;130430;-37
2022/11/24 02:39:12;;;;;;;25.77;4.38;;;;;;;21.20;63.51;98603.16;7314080;19;129563;-36
2022/11/24 02:41:42;;;;;;;44.05;5.93;;;;;;;21.16;64.23;98609.66;7313124;19;129009;-37
2022/11/24 02:44:08;;;;;;;38.38;5.65;;;;;;;21.00;64.32;98591.34;7312846;19;130237;-37
2022/11/24 02:46:33;;;;;;;46.17;5.88;;;;;;;21.09;64.40;98621.72;7305314;19;129445;-37
2022/11/24 02:48:58;;;;;;;47.78;5.93;;;;;;;21.06;64.89;98614.22;7311417;19;129626;-35
2022/11/24 02:51:24;;;;;;;16.27;3.90;;;;;;;21.05;64.89;98617.81;7313237;19;129020;-37
2022/11/24 02:53:49;;;;;;;85.20;9.10;;;;;;;21.01;65.08;98616.50;7310411;19;130199;-37
2022/11/24 02:56:14;;;;;;;33.78;5.00;;;;;;;20.99;65.12;98613.22;7310608;19;130264;-38
2022/11/24 02:58:40;;;;;;;22.23;3.97;;;;;;;20.88;65.12;98599.59;7313635;19;129181;-37
2022/11/24 03:01:05;;;;;;;37.22;5.10;;;;;;;20.97;65.12;98620.41;7311839;19;128983;-34
2022/11/24 03:03:31;;;;;;;32.10;5.15;;;;;;;20.98;65.13;98616.81;7311399;19;130986;-37
2022/11/24 03:05:56;;;;;;;52.15;6.80;;;;;;;21.04;65.13;98620.59;7311634;19;130104;-38
2022/11/24 03:08:21;;;;;;;21.20;3.80;;;;;;;21.13;64.64;98623.06;7313689;19;129279;-36
2022/11/24 03:10:47;;;;;;;24.20;4.13;;;;;;;21.33;64.25;98621.78;7310241;19;129819;-36
2022/11/24 03:13:13;;;;;;;23.90;4.40;;;;;;;21.44;63.49;98626.69;7310571;19;130202;-37
2022/11/24 03:15:38;;;;;;;32.03;4.68;;;;;;;21.64;63.12;98616.72;7311327;19;129239;-36
2022/11/24 03:18:04;;;;;;;36.37;5.30;;;;;;;21.76;62.35;98623.28;7311511;19;129250;-37
2022/11/24 03:20:29;;;;;;;48.38;5.93;;;;;;;21.84;61.86;98620.69;7310216;19;129484;-36
2022/11/24 03:22:55;;;;;;;30.10;4.25;;;;;;;21.91;61.47;98622.47;7310441;19;130183;-38
2022/11/24 03:25:20;;;;;;;23.77;3.55;;;;;;;21.90;62.02;98631.31;7312256;19;129746;-37
2022/11/24 03:27:46;;;;;;;60.10;7.15;;;;;;;21.75;61.48;98608.56;7308154;19;130069;-37
2022/11/24 03:30:11;;;;;;;36.47;4.90;;;;;;;21.80;62.22;98625.44;7309767;19;130311;-36
2022/11/24 03:32:37;;;;;;;33.85;5.13;;;;;;;21.78;61.76;98629.22;7308699;19;129570;-38
2022/11/24 03:35:03;;;;;;;42.60;5.43;;;;;;;21.74;62.03;98617.38;7310216;19;130007;-36
2022/11/24 03:37:29;;;;;;;49.90;6.35;;;;;;;21.85;61.82;98628.38;7311002;19;129080;-33
2022/11/24 03:39:54;;;;;;;138.70;12.30;;;;;;;22.01;61.66;98631.97;7286360;19;130187;-36
2022/11/24 03:42:20;;;;;;;24.45;3.95;;;;;;;22.23;60.59;98631.28;7307226;19;130687;-38
2022/11/24 03:44:45;;;;;;;27.38;4.35;;;;;;;22.46;60.51;98632.19;7311282;19;130322;-36
2022/11/24 03:47:11;;;;;;;62.22;6.68;;;;;;;22.67;59.37;98624.63;7309814;19;128741;-36
2022/11/24 03:49:37;;;;;;;120.27;11.10;;;;;;;22.88;58.60;98637.94;7300859;19;130810;-36
2022/11/24 03:52:02;;;;;;;82.53;8.18;;;;;;;23.03;58.61;98633.63;7295957;19;130547;-36
2022/11/24 03:54:28;;;;;;;63.70;7.03;;;;;;;23.12;57.91;98637.84;7303272;19;129505;-36
2022/11/24 03:56:53;;;;;;;80.80;8.20;;;;;;;23.15;57.87;98643.53;7302319;19;129545;-35
2022/11/24 03:59:18;;;;;;;102.60;10.05;;;;;;;23.28;58.01;98650.06;7299158;19;129986;-37
2022/11/24 04:01:44;;;;;;;56.87;6.53;;;;;;;23.24;57.96;98639.06;7303740;19;130034;-34
2022/11/24 04:04:11;;;;;;;82.57;8.20;;;;;;;23.21;57.36;98644.66;7305423;19;129773;-37
2022/11/24 04:06:36;;;;;;;85.38;8.60;;;;;;;23.21;57.54;98648.09;7306549;19;129096;-36
2022/11/24 04:09:02;;;;;;;43.63;5.63;;;;;;;23.14;57.86;98648.94;7304410;19;132000;-36
2022/11/24 04:14:12;;;;;;;64.93;6.88;;;;;;;22.97;58.32;98650.84;7310676;19;130236;-36
2022/11/24 04:16:37;;;;;;;24.57;3.80;;;;;;;22.69;58.52;98641.00;7314579;19;129180;-38
2022/11/24 04:19:03;;;;;;;55.80;6.78;;;;;;;22.69;59.44;98659.34;7310519;19;129491;-37
2022/11/24 04:21:28;;;;;;;22.35;4.22;;;;;;;22.58;59.89;98663.13;7316324;19;129533;-37
2022/11/24 04:23:53;;;;;;;84.82;9.25;;;;;;;22.48;60.14;98662.47;7313386;19;130009;-38
2022/11/24 04:26:19;;;;;;;24.67;3.93;;;;;;;22.39;60.16;98662.66;7319435;19;129038;-36
2022/11/24 04:28:44;;;;;;;40.47;5.32;;;;;;;22.29;60.60;98662.03;7316573;19;129591;-36
2022/11/24 04:31:09;;;;;;;22.23;3.80;;;;;;;22.15;61.08;98645.19;7315986;19;129224;-37
2022/11/24 04:33:35;;;;;;;28.60;4.53;;;;;;;22.12;61.30;98670.88;7316858;19;129309;-38
2022/11/24 04:36:00;;;;;;;28.92;4.25;;;;;;;22.02;61.40;98671.06;7318306;19;128937;-37
2022/11/24 04:38:25;;;;;;;36.35;4.88;;;;;;;21.94;61.79;98679.75;7316924;19;129309;-37
2022/11/24 04:40:51;;;;;;;14.97;3.37;;;;;;;21.86;61.50;98682.34;7316201;19;129335;-36
2022/11/24 04:43:18;;;;;;;59.78;6.82;;;;;;;21.78;62.07;98679.72;7312329;19;129262;-37
2022/11/24 04:45:43;;;;;;;23.83;3.95;;;;;;;21.72;62.28;98696.03;7313550;19;129461;-37
2022/11/24 04:48:09;;;;;;;21.27;3.65;;;;;;;21.66;62.75;98695.88;7318319;19;129229;-35
2022/11/24 04:50:35;;;;;;;21.60;3.72;;;;;;;21.58;62.89;98699.31;7313227;19;129636;-38
2022/11/24 04:53:01;;;;;;;29.65;4.40;;;;;;;21.53;63.19;98700.75;7314751;19;129499;-36
2022/11/24 04:55:26;;;;;;;47.23;5.83;;;;;;;21.50;62.78;98704.50;7314255;19;129385;-36
2022/11/24 04:57:51;;;;;;;32.80;4.93;;;;;;;21.48;63.47;98703.84;7316959;19;129066;-37
2022/11/24 05:00:18;;;;;;;34.37;4.87;;;;;;;21.39;64.01;98704.81;7315117;19;131066;-37
2022/11/24 05:02:43;;;;;;;23.45;3.65;;;;;;;21.37;63.85;98705.97;7312773;19;130541;-36
2022/11/24 05:05:09;;;;;;;23.48;3.90;;;;;;;21.31;63.73;98710.03;7314261;19;129157;-35
2022/11/24 05:07:34;;;;;;;24.92;3.85;;;;;;;21.33;63.72;98715.91;7314164;19;130945;-37
2022/11/24 05:12:44;;;;;;;44.70;5.53;;;;;;;21.32;64.13;98719.50;7312344;19;129499;-34
2022/11/24 05:15:09;;;;;;;22.77;3.88;;;;;;;21.28;64.21;98723.41;7315677;19;129677;-39
2022/11/24 05:17:37;;;;;;;23.95;3.85;;;;;;;21.23;64.69;98714.41;7316882;19;129119;-35
2022/11/24 05:20:04;;;;;;;28.58;4.05;;;;;;;21.26;64.48;98719.31;7314266;19;128997;-36
2022/11/24 05:22:30;;;;;;;26.33;3.95;;;;;;;21.25;64.34;98731.56;7313204;19;129950;-39
2022/11/24 05:24:55;;;;;;;33.00;4.47;;;;;;;21.23;64.39;98736.13;7313111;19;129188;-36
2022/11/24 05:27:21;;;;;;;27.13;4.55;;;;;;;21.20;64.65;98744.31;7314812;19;129051;-35
2022/11/24 05:29:46;;;;;;;30.45;4.25;;;;;;;21.20;64.00;98735.63;7314250;19;131102;-38
2022/11/24 05:32:12;;;;;;;24.20;4.20;;;;;;;21.26;64.08;98735.81;7313459;19;130088;-39
2022/11/24 05:34:37;;;;;;;14.80;3.55;;;;;;;21.37;63.95;98743.38;7314903;19;129240;-39
2022/11/24 05:37:03;;;;;;;23.77;3.85;;;;;;;21.54;62.66;98741.63;7316035;19;128926;-39
2022/11/24 05:39:35;;;;;;;51.10;6.00;;;;;;;21.68;62.67;98741.81;7314213;19;129475;-35
2022/11/24 05:42:39;;;;;;;27.00;4.20;;;;;;;21.83;62.06;98747.28;7313104;19;129652;-39
2022/11/24 05:44:48;;;;;;;24.70;3.88;;;;;;;21.96;61.91;98751.03;7313780;19;129052;-33
2022/11/24 05:47:13;;;;;;;23.02;3.70;;;;;;;22.07;61.34;98751.69;7315874;19;129664;-28
2022/11/24 05:49:38;;;;;;;28.88;4.20;;;;;;;22.16;61.41;98750.72;7311706;19;130990;-34
2022/11/24 05:52:04;;;;;;;25.70;3.97;;;;;;;22.21;60.74;98751.88;7309711;19;131059;-33
2022/11/24 05:54:29;;;;;;;22.70;4.10;;;;;;;22.27;60.38;98756.47;7314392;19;128997;-33
2022/11/24 05:56:55;;;;;;;26.60;4.03;;;;;;;22.21;61.03;98758.91;7314610;19;129007;-33
2022/11/24 05:59:20;;;;;;;30.92;4.40;;;;;;;22.24;60.63;98766.44;7308966;19;130251;-34
2022/11/24 06:01:46;;;;;;;27.57;4.17;;;;;;;22.29;60.96;98764.16;7307557;19;129208;-37
2022/11/24 06:04:12;;;;;;;47.25;5.82;;;;;;;22.25;60.58;98768.06;7311116;19;129114;-34
2022/11/24 06:06:37;;;;;;;34.83;4.87;;;;;;;22.26;60.35;98772.34;7307700;19;129080;-30
2022/11/24 06:09:03;;;;;;;40.93;4.83;;;;;;;22.18;60.65;98757.44;7309084;19;130267;-33
2022/11/24 06:11:29;;;;;;;63.17;6.18;;;;;;;22.27;60.93;98779.19;7303920;19;129618;-36
2022/11/24 06:13:54;;;;;;;67.93;6.87;;;;;;;22.30;60.10;98789.34;7304639;19;129758;-35
2022/11/24 06:16:19;;;;;;;73.05;7.05;;;;;;;22.28;60.93;98791.31;7306864;19;129567;-36
2022/11/24 06:18:45;;;;;;;65.13;6.87;;;;;;;22.35;60.07;98797.53;7307652;19;130042;-36
2022/11/24 06:21:10;;;;;;;64.72;6.70;;;;;;;22.33;60.04;98791.66;7302997;19;129600;-41
2022/11/24 06:23:35;;;;;;;94.97;8.47;;;;;;;22.36;60.51;98804.41;7304232;19;129431;-38
2022/11/24 06:26:01;;;;;;;58.45;6.22;;;;;;;22.30;60.17;98795.41;7302322;19;130011;-33
2022/11/24 06:28:26;;;;;;;26.80;3.93;;;;;;;22.27;60.42;98792.28;7314299;19;129573;-35
2022/11/24 06:30:53;;;;;;;22.40;3.83;;;;;;;22.22;60.47;98802.44;7314212;19;129586;-33
2022/11/24 06:33:18;;;;;;;30.30;4.22;;;;;;;22.19;61.25;98800.13;7309676;19;129170;-33
2022/11/24 06:35:44;;;;;;;33.22;4.60;;;;;;;22.15;61.32;98806.69;7310018;19;129034;-34
2022/11/24 06:38:09;;;;;;;25.20;3.92;;;;;;;22.11;60.74;98797.53;7313636;19;130195;-35
2022/11/24 06:40:35;;;;;;;31.93;4.33;;;;;;;22.05;61.59;98804.22;7314807;19;129240;-31
2022/11/24 06:43:00;;;;;;;51.00;6.00;;;;;;;21.98;60.95;98803.25;7309912;19;128903;-33
2022/11/24 06:45:25;;;;;;;24.35;4.03;;;;;;;21.98;61.72;98816.31;7312821;19;129047;-32
2022/11/24 06:47:54;;;;;;;29.15;4.35;;;;;;;21.92;62.04;98815.16;7314528;19;128906;-35
2022/11/24 06:50:21;;;;;;;34.88;4.53;;;;;;;21.92;61.63;98816.94;7314127;19;129552;-32
2022/11/24 06:52:46;;;;;;;19.13;3.40;;;;;;;21.86;61.98;98831.50;7311713;19;129293;-33
2022/11/24 06:55:11;;;;;;;64.07;6.95;;;;;;;21.83;61.83;98829.19;7310276;19;129474;-37
2022/11/24 06:57:37;;;;;;;30.17;4.07;;;;;;;21.77;61.90;98832.47;7312234;19;129160;-35
2022/11/24 07:00:06;;;;;;;29.45;4.05;;;;;;;21.77;62.64;98839.47;7313668;19;130408;-30
2022/11/24 07:02:32;;;;;;;20.85;3.65;;;;;;;21.73;62.61;98825.06;7309080;19;128797;-34
2022/11/24 07:04:57;;;;;;;31.08;4.53;;;;;;;21.68;62.47;98830.75;7311986;19;128921;-38
2022/11/24 07:07:23;;;;;;;25.00;4.00;;;;;;;21.62;62.58;98841.03;7313123;19;129082;-33
2022/11/24 07:09:48;;;;;;;19.40;3.33;;;;;;;21.58;63.26;98845.78;7312924;19;129684;-35
2022/11/24 07:12:13;;;;;;;35.77;4.67;;;;;;;21.54;62.73;98849.66;7311183;19;129623;-33
2022/11/24 07:14:39;;;;;;;16.50;3.63;;;;;;;21.49;63.35;98846.72;7307637;19;129433;-31
2022/11/24 07:17:04;;;;;;;26.85;4.00;;;;;;;21.47;63.11;98848.66;7310322;19;129326;-31
2022/11/24 07:19:30;;;;;;;46.67;5.77;;;;;;;21.36;63.53;98828.03;7312608;19;130448;-33
2022/11/24 07:21:55;;;;;;;24.17;3.87;;;;;;;21.45;63.08;98855.81;7311838;19;129162;-32
2022/11/24 07:24:21;;;;;;;27.02;3.95;;;;;;;21.29;63.46;98834.00;7311510;19;129597;-34
2022/11/24 07:26:46;;;;;;;20.10;3.50;;;;;;;21.39;63.54;98853.84;7312396;19;129297;-36
2022/11/24 07:29:12;;;;;;;60.15;6.60;;;;;;;21.39;63.38;98853.84;7305225;19;129708;-34
2022/11/24 07:31:37;;;;;;;19.27;3.53;;;;;;;21.36;63.61;98851.56;7311307;19;129397;-30
2022/11/24 07:34:03;;;;;;;50.10;5.60;;;;;;;21.35;64.03;98860.38;7310078;19;128946;-34
2022/11/24 07:36:28;;;;;;;28.73;4.22;;;;;;;21.31;63.84;98859.03;7313964;19;130546;-30
2022/11/24 07:38:53;;;;;;;30.97;4.57;;;;;;;21.37;63.53;98862.84;7317810;19;129644;-33
2022/11/24 07:41:19;;;;;;;31.67;4.37;;;;;;;21.33;63.67;98858.88;7316594;19;129400;-35
2022/11/24 07:43:45;;;;;;;30.77;4.30;;;;;;;21.34;64.36;98869.19;7317825;19;129178;-34
2022/11/24 07:46:14;;;;;;;30.73;3.97;;;;;;;21.32;64.20;98865.91;7318703;19;130301;-33
2022/11/24 07:48:39;;;;;;;26.92;3.92;;;;;;;21.32;63.72;98871.13;7318203;19;129165;-35
2022/11/24 07:51:05;;;;;;;24.77;3.70;;;;;;;21.30;64.22;98873.09;7316937;19;129453;-36
2022/11/24 07:53:32;;;;;;;32.83;4.43;;;;;;;21.28;63.78;98875.03;7318776;19;129265;-37
2022/11/24 07:55:59;;;;;;;25.70;3.75;;;;;;;21.26;63.82;98882.22;7318531;19;130158;-36
2022/11/24 07:58:30;;;;;;;23.90;3.92;;;;;;;21.28;63.93;98875.03;7317225;19;130268;-32
2022/11/24 08:00:56;;;;;;;23.55;3.42;;;;;;;21.29;64.61;98866.22;7318519;19;129047;-34
2022/11/24 08:03:22;;;;;;;38.10;4.85;;;;;;;21.28;63.95;98877.66;7318719;19;130782;-31
2022/11/24 08:05:57;;;;;;;21.30;3.37;;;;;;;21.24;64.12;98867.66;7317163;19;130672;-35
2022/11/24 08:08:23;;;;;;;28.73;4.03;;;;;;;21.29;64.20;98876.66;7317582;19;129384;-30
2022/11/24 08:10:49;;;;;;;26.05;3.63;;;;;;;21.30;64.28;98877.50;7318427;19;129561;-30
2022/11/24 08:13:15;;;;;;;27.67;3.80;;;;;;;21.28;64.47;98879.44;7314916;19;130415;-37
2022/11/24 08:15:40;;;;;;;31.37;4.47;;;;;;;21.28;64.41;98885.50;7316211;19;129338;-33
2022/11/24 08:18:05;;;;;;;40.63;5.13;;;;;;;21.31;63.79;98879.97;7318345;19;129725;-32
2022/11/24 08:20:31;;;;;;;16.93;3.20;;;;;;;21.20;63.69;98861.94;7317915;19;128979;-34
2022/11/24 08:23:00;;;;;;;27.98;3.88;;;;;;;21.37;64.47;98879.31;7316927;19;129125;-36
2022/11/24 08:25:31;;;;;;;24.15;3.58;;;;;;;21.34;63.70;98879.63;7314993;19;129521;-32
2022/11/24 08:27:57;;;;;;;27.10;3.47;;;;;;;21.36;63.49;98877.69;7318339;19;130441;-33
2022/11/24 08:30:23;;;;;;;24.83;3.50;;;;;;;21.37;63.48;98884.56;7317691;19;128849;-33
2022/11/24 08:32:48;;;;;;;26.17;4.20;;;;;;;21.37;63.46;98879.31;7315767;19;129012;-33
2022/11/24 08:35:14;;;;;;;26.05;3.85;;;;;;;21.37;63.83;98883.75;7316566;19;129608;-30
2022/11/24 08:37:39;;;;;;;25.93;3.60;;;;;;;21.41;63.51;98885.91;7317481;19;130643;-34
2022/11/24 08:40:05;;;;;;;21.75;3.28;;;;;;;21.40;63.94;98886.84;7316972;19;128962;-34
2022/11/24 08:42:30;;;;;;;27.20;3.67;;;;;;;21.41;63.62;98885.91;7315599;19;129098;-37
2022/11/24 08:44:56;;;;;;;30.07;4.37;;;;;;;21.39;63.52;98887.00;7316346;19;129324;-34
2022/11/24 08:47:21;;;;;;;23.75;3.75;;;;;;;21.30;63.28;98872.28;7316033;19;129234;-33
2022/11/24 08:49:47;;;;;;;26.00;3.90;;;;;;;21.36;63.76;98887.34;7316437;19;129416;-33
2022/11/24 08:52:12;;;;;;;26.65;3.88;;;;;;;21.21;63.71;98884.47;7316055;19;128913;-33
2022/11/24 08:54:38;;;;;;;19.55;3.20;;;;;;;21.29;64.18;98894.97;7316323;19;129044;-31
2022/11/24 08:57:04;;;;;;;17.80;3.30;;;;;;;21.33;63.59;98898.09;7315140;19;129935;-35
2022/11/24 08:59:29;;;;;;;58.07;7.30;;;;;;;21.27;61.38;98891.69;7314308;19;130567;-31
2022/11/24 09:01:54;;;;;;;24.52;4.82;;;;;;;21.19;59.91;98889.03;7313087;19;130282;-33
2022/11/24 09:04:20;;;;;;;25.50;5.13;;;;;;;21.18;59.75;98895.25;7313466;19;130682;-33
2022/11/24 09:06:45;;;;;;;34.70;6.07;;;;;;;21.19;59.40;98898.69;7309877;19;129647;-35
2022/11/24 09:09:11;;;;;;;33.40;5.43;;;;;;;21.21;59.18;98897.53;7310322;19;130787;-35
2022/11/24 09:11:36;;;;;;;32.33;5.60;;;;;;;21.25;59.23;98901.50;7314826;19;130108;-34
2022/11/24 09:14:03;;;;;;;33.15;5.13;;;;;;;21.25;58.84;98901.50;7315168;19;130262;-34
2022/11/24 09:16:28;;;;;;;53.00;6.68;;;;;;;21.34;59.31;98904.97;7314789;19;129167;-34
2022/11/24 09:19:05;;;;;;;47.63;6.77;;;;;;;21.41;60.29;98906.81;7303538;19;130006;-45
2022/11/24 09:21:33;;;;;;;54.43;7.17;;;;;;;21.54;60.29;98912.44;7312063;19;131704;-32
2022/11/24 09:23:59;;;;;;;58.80;7.47;;;;;;;21.62;60.09;98912.47;7314256;19;131199;-31
2022/11/24 09:26:29;;;;;;;31.80;5.10;;;;;;;21.65;59.67;98909.53;7313207;19;129395;-35
2022/11/24 09:28:56;;;;;;;41.05;6.18;;;;;;;21.72;59.78;98910.56;7314625;19;128939;-35
2022/11/24 09:31:24;;;;;;;27.00;4.57;;;;;;;21.72;60.36;98918.41;7312656;19;129652;-36
2022/11/24 09:33:51;;;;;;;49.42;6.60;;;;;;;21.68;60.58;98909.22;7312296;19;131054;-38
2022/11/24 09:36:17;;;;;;;30.67;5.15;;;;;;;21.73;60.64;98916.63;7313725;19;131106;-34
2022/11/24 09:38:42;;;;;;;33.93;4.97;;;;;;;21.73;60.57;98911.41;7313843;19;129406;-34
2022/11/24 09:41:14;;;;;;;36.75;5.55;;;;;;;21.82;60.17;98913.09;7314216;19;129038;-35
2022/11/24 09:43:58;;;;;;;27.80;4.88;;;;;;;21.87;60.08;98916.88;7316115;19;129319;-33
2022/11/24 09:46:34;;;;;;;25.08;4.25;;;;;;;21.92;59.48;98912.00;7315950;19;129374;-30
2022/11/24 09:49:03;;;;;;;24.47;4.53;;;;;;;22.00;59.92;98918.25;7315451;19;129544;-36
2022/11/24 09:51:31;;;;;;;30.92;4.75;;;;;;;22.04;59.23;98914.31;7313964;19;128889;-37
2022/11/24 09:54:11;;;;;;;56.80;6.88;;;;;;;22.07;59.22;98912.19;7313062;19;129159;-35
2022/11/24 09:56:40;;;;;;;21.48;4.13;;;;;;;22.12;59.09;98919.56;7315416;19;129113;-35
2022/11/24 09:59:17;;;;;;;21.45;4.25;;;;;;;22.18;59.24;98916.34;7310689;19;129712;-36
2022/11/24 10:01:45;;;;;;;25.42;4.45;;;;;;;22.24;58.94;98915.69;7313943;19;129053;-34
2022/11/24 10:04:36;;;;;;;25.70;5.30;;;;;;;22.25;59.29;98927.78;7314268;19;130152;-36
2022/11/24 10:07:14;;;;;;;40.90;5.43;;;;;;;22.30;58.86;98917.66;7313985;19;129626;-31
2022/11/24 10:09:57;;;;;;;50.45;6.50;;;;;;;22.32;58.52;98921.75;7311661;19;129361;-35
2022/11/24 10:12:42;;;;;;;43.47;6.53;;;;;;;22.30;58.99;98918.47;7311567;19;129054;-34
2022/11/24 10:15:29;;;;;;;27.80;4.60;;;;;;;22.27;58.99;98915.34;7310595;19;130435;-33
2022/11/24 10:18:02;;;;;;;26.38;4.75;;;;;;;22.21;59.04;98924.69;7314959;19;130303;-36
2022/11/24 10:20:52;;;;;;;24.95;4.25;;;;;;;22.16;59.61;98918.28;7314578;19;128883;-33
2022/11/24 10:23:25;;;;;;;28.25;4.22;;;;;;;22.12;59.31;98915.16;7311834;19;129114;-32
2022/11/24 10:25:57;;;;;;;24.75;4.18;;;;;;;22.07;59.72;98929.69;7313790;19;129177;-33
2022/11/24 10:28:30;;;;;;;21.65;3.85;;;;;;;21.88;59.78;98904.63;7314841;19;129343;-33
2022/11/24 10:31:15;;;;;;;20.75;4.10;;;;;;;21.88;59.78;98912.47;7313278;19;128990;-34
2022/11/24 10:33:41;;;;;;;25.58;4.20;;;;;;;21.92;59.79;98932.09;7311740;19;128995;-33
2022/11/24 10:36:12;;;;;;;13.20;3.33;;;;;;;21.89;60.32;98922.78;7312503;19;130598;-34
2022/11/24 10:38:44;;;;;;;24.45;4.30;;;;;;;21.88;60.05;98926.34;7312338;19;130548;-35
2022/11/24 10:41:20;;;;;;;25.45;4.70;;;;;;;21.83;60.69;98926.00;7314623;19;130771;-33
2022/11/24 10:43:45;;;;;;;23.90;4.50;;;;;;;21.86;60.47;98923.09;7313225;19;129325;-32
2022/11/24 10:46:15;;;;;;;44.22;5.85;;;;;;;21.78;60.84;98925.66;7312907;19;129582;-31
2022/11/24 10:48:47;;;;;;;22.02;3.97;;;;;;;21.70;60.96;98906.47;7313345;19;129567;-30
2022/11/24 10:51:37;;;;;;;25.20;4.18;;;;;;;21.76;61.13;98924.16;7313385;19;128856;-35
2022/11/24 10:54:16;;;;;;;57.42;6.88;;;;;;;21.73;60.70;98920.03;7310949;19;129298;-32
2022/11/24 10:56:44;;;;;;;50.58;6.03;;;;;;;21.71;61.00;98924.63;7312470;19;130960;-37
2022/11/24 10:59:28;;;;;;;37.65;4.95;;;;;;;21.58;61.17;98905.09;7311761;19;129699;-31
2022/11/24 11:01:53;;;;;;;29.20;4.60;;;;;;;21.66;61.21;98921.66;7311952;19;128753;-31
2022/11/24 11:04:27;;;;;;;37.72;4.97;;;;;;;21.65;60.83;98922.63;7312689;19;129022;-30
2022/11/24 11:07:16;;;;;;;35.30;4.88;;;;;;;21.60;61.38;98924.88;7313320;19;129120;-38
2022/11/24 11:09:42;;;;;;;11.68;3.22;;;;;;;21.56;61.75;98927.97;7314226;19;130984;-32
2022/11/24 11:12:30;;;;;;;22.23;3.65;;;;;;;21.53;61.51;98926.50;7319313;19;129090;-33
2022/11/24 11:14:56;;;;;;;24.00;4.57;;;;;;;21.38;61.47;98907.13;7316824;19;129038;-31
2022/11/24 11:17:36;;;;;;;52.35;6.18;;;;;;;21.47;61.79;98934.97;7319580;19;129931;-32
2022/11/24 11:20:16;;;;;;;25.25;4.03;;;;;;;21.43;62.41;98931.03;7319289;19;132013;-33
2022/11/24 11:22:44;;;;;;;29.27;4.40;;;;;;;21.41;61.89;98932.13;7318095;19;129046;-32
2022/11/24 11:25:09;;;;;;;23.30;4.07;;;;;;;21.41;61.85;98932.13;7318790;19;128871;-33